createdAt,value
2022-12-16T00:04:01.300Z,40.22
2022-12-16T00:09:03.410Z,35.95
2022-12-16T00:14:05.584Z,39.17
2022-12-16T00:19:07.501Z,39.47
2022-12-16T00:24:09.087Z,38.55
2022-12-16T00:29:11.270Z,43.97
2022-12-16T00:34:12.802Z,40.45
2022-12-16T00:39:14.431Z,37.95
2022-12-16T00:44:15.996Z,38.00
2022-12-16T00:49:17.618Z,42.03
2022-12-16T00:54:19.211Z,40.10
2022-12-16T00:59:20.798Z,38.00
2022-12-16T01:04:22.386Z,38.20
2022-12-16T01:09:24.062Z,40.08
2022-12-16T01:14:25.692Z,39.50
2022-12-16T01:19:27.238Z,44.60
2022-12-16T01:24:28.770Z,41.03
2022-12-16T01:29:30.291Z,43.55
2022-12-16T01:34:32.423Z,43.30
2022-12-16T01:39:33.943Z,42.40
2022-12-16T01:44:35.575Z,41.28
2022-12-16T01:49:49.052Z,43.38
2022-12-16T01:54:57.847Z,42.33
2022-12-16T02:00:01.330Z,48.58
2022-12-16T02:05:21.142Z,43.65
2022-12-16T02:10:33.809Z,44.15
2022-12-16T02:15:46.052Z,43.05
2022-12-16T02:20:59.398Z,40.72
2022-12-16T02:26:26.804Z,47.78
2022-12-16T02:31:56.052Z,44.90
2022-12-16T02:47:15.099Z,34.42
2022-12-16T02:52:20.575Z,38.00
2022-12-16T02:57:35.085Z,40.42
2022-12-16T03:02:52.237Z,34.67
2022-12-16T03:07:56.856Z,38.63
2022-12-16T03:13:00.780Z,37.92
2022-12-16T03:18:06.074Z,34.47
2022-12-16T03:23:12.768Z,34.13
2022-12-16T03:28:49.808Z,33.90
2022-12-16T03:34:00.176Z,31.38
2022-12-16T03:39:04.388Z,28.95
2022-12-16T03:44:07.885Z,31.80
2022-12-16T03:49:09.440Z,27.23
2022-12-16T03:54:11.020Z,27.88
2022-12-16T03:59:12.572Z,26.80
2022-12-16T04:04:14.152Z,26.05
2022-12-16T04:09:15.708Z,28.40
2022-12-16T04:14:36.105Z,31.90
2022-12-16T04:19:56.778Z,31.10
2022-12-16T04:25:07.107Z,25.60
2022-12-16T04:30:21.564Z,25.52
2022-12-16T04:35:41.782Z,29.42
2022-12-16T04:41:01.907Z,28.20
2022-12-16T04:46:22.279Z,22.75
2022-12-16T04:51:42.464Z,25.55
2022-12-16T04:57:02.485Z,24.98
2022-12-16T05:02:22.815Z,23.77
2022-12-16T05:07:42.918Z,24.13
2022-12-16T05:13:02.768Z,26.52
2022-12-16T05:18:34.645Z,24.98
2022-12-16T05:23:54.484Z,24.77
2022-12-16T05:29:14.628Z,23.42
2022-12-16T05:34:34.823Z,23.23
2022-12-16T05:39:54.690Z,24.25
2022-12-16T05:45:14.910Z,23.35
2022-12-16T05:50:35.032Z,27.83
2022-12-16T05:56:02.548Z,26.45
2022-12-16T06:01:25.512Z,25.15
2022-12-16T06:06:45.823Z,24.98
2022-12-16T06:12:05.839Z,23.40
2022-12-16T06:17:25.944Z,25.58
2022-12-16T06:22:46.224Z,26.63
2022-12-16T06:28:09.694Z,24.73
2022-12-16T06:33:30.128Z,22.75
2022-12-16T06:38:50.635Z,25.80
2022-12-16T06:44:10.738Z,25.65
2022-12-16T06:49:31.048Z,22.38
2022-12-16T06:54:51.199Z,23.38
2022-12-16T07:00:22.208Z,26.85
2022-12-16T07:05:42.120Z,24.08
2022-12-16T07:11:15.578Z,25.55
2022-12-16T07:16:36.640Z,31.75
2022-12-16T07:21:56.718Z,27.83
2022-12-16T07:27:16.912Z,25.38
2022-12-16T07:32:37.334Z,30.95
2022-12-16T07:37:58.161Z,24.92
2022-12-16T07:43:18.358Z,27.33
2022-12-16T07:48:38.706Z,27.48
2022-12-16T07:53:58.973Z,36.30
2022-12-16T07:59:19.299Z,28.05
2022-12-16T08:04:39.575Z,30.05
2022-12-16T08:09:59.920Z,29.52
2022-12-16T08:15:20.085Z,24.05
2022-12-16T08:20:40.523Z,30.08
2022-12-16T08:26:00.818Z,27.83
2022-12-16T08:31:21.041Z,26.15
2022-12-16T08:36:41.229Z,32.15
2022-12-16T08:42:01.570Z,25.48
2022-12-16T08:47:21.682Z,41.20
2022-12-16T08:52:42.051Z,34.90
2022-12-16T08:58:02.259Z,30.58
2022-12-16T09:03:23.260Z,33.88
2022-12-16T09:08:56.670Z,28.77
2022-12-16T09:14:23.762Z,29.67
2022-12-16T09:19:43.987Z,27.27
2022-12-16T09:25:04.225Z,25.38
2022-12-16T09:30:24.943Z,26.77
2022-12-16T09:35:45.193Z,25.40
2022-12-16T09:41:05.441Z,22.67
2022-12-16T09:46:55.016Z,23.60
2022-12-16T09:52:19.743Z,20.52
2022-12-16T09:57:41.893Z,21.23
2022-12-16T10:03:07.527Z,25.83
2022-12-16T10:09:03.001Z,23.25
2022-12-16T10:14:30.809Z,21.45
2022-12-16T10:20:10.024Z,22.33
2022-12-16T10:30:58.345Z,21.85
2022-12-16T10:36:19.244Z,23.75
2022-12-16T10:41:43.691Z,20.48
2022-12-16T10:47:03.938Z,22.10
2022-12-16T10:52:24.633Z,22.35
2022-12-16T10:58:02.868Z,23.75
2022-12-16T11:03:45.207Z,23.33
2022-12-16T11:09:05.581Z,22.90
2022-12-16T11:15:12.546Z,30.75
2022-12-16T11:20:44.629Z,30.80
2022-12-16T11:26:04.890Z,24.50
2022-12-16T11:31:33.791Z,25.88
2022-12-16T11:36:56.617Z,23.90
2022-12-16T11:42:18.302Z,22.00
2022-12-16T11:48:01.609Z,25.38
2022-12-16T11:53:32.665Z,29.52
2022-12-16T11:58:53.444Z,24.33
2022-12-16T12:04:17.540Z,20.80
2022-12-16T12:09:44.579Z,18.75
2022-12-16T12:15:16.084Z,22.60
2022-12-16T12:20:48.464Z,20.75
2022-12-16T12:26:12.700Z,18.55
2022-12-16T12:31:43.852Z,21.35
2022-12-16T12:37:18.461Z,17.63
2022-12-16T12:42:49.280Z,17.95
2022-12-16T12:48:33.174Z,21.27
2022-12-16T12:54:15.149Z,22.50
2022-12-16T12:59:43.471Z,23.83
2022-12-16T13:05:07.418Z,20.38
2022-12-16T13:10:39.829Z,20.38
2022-12-16T13:16:00.493Z,20.23
2022-12-16T13:21:20.529Z,20.63
2022-12-16T13:26:43.328Z,21.05
2022-12-16T13:32:20.392Z,23.17
2022-12-16T13:37:44.106Z,21.67
2022-12-16T13:43:04.348Z,24.08
2022-12-16T13:48:46.255Z,23.70
2022-12-16T13:54:10.679Z,25.38
2022-12-16T13:59:46.689Z,20.08
2022-12-16T14:05:11.358Z,23.05
2022-12-16T14:10:43.877Z,22.88
2022-12-16T14:16:07.514Z,24.27
2022-12-16T14:21:34.274Z,20.67
2022-12-16T14:26:56.057Z,25.83
2022-12-16T14:32:16.347Z,22.02
2022-12-16T14:37:36.617Z,18.23
2022-12-16T14:42:59.811Z,23.08
2022-12-16T14:48:19.962Z,18.88
2022-12-16T14:53:42.760Z,19.50
2022-12-16T14:59:02.904Z,22.42
2022-12-16T15:04:28.006Z,21.30
2022-12-16T15:09:52.958Z,20.75
2022-12-16T15:15:16.901Z,18.98
2022-12-16T15:20:49.212Z,26.70
2022-12-16T15:26:14.777Z,21.65
2022-12-16T15:31:44.127Z,23.70
2022-12-16T15:37:04.659Z,23.10
2022-12-16T15:42:45.888Z,21.90
2022-12-16T15:48:08.951Z,20.00
2022-12-16T15:53:47.135Z,22.65
2022-12-16T15:59:07.501Z,24.83
2022-12-16T16:04:39.481Z,22.83
2022-12-16T16:09:59.839Z,25.83
2022-12-16T16:15:20.399Z,30.38
2022-12-16T16:20:41.005Z,37.38
2022-12-16T16:26:03.986Z,26.70
2022-12-16T16:31:26.559Z,23.50
2022-12-16T16:36:47.013Z,22.13
2022-12-16T16:42:07.393Z,21.42
2022-12-16T16:47:35.153Z,25.08
2022-12-16T16:52:55.601Z,25.08
2022-12-16T16:58:16.210Z,25.35
2022-12-16T17:03:37.010Z,26.17
2022-12-16T17:08:57.877Z,30.40
2022-12-16T17:14:18.054Z,30.17
2022-12-16T17:19:37.943Z,33.67
2022-12-16T17:24:58.245Z,27.90
2022-12-16T17:30:18.971Z,32.22
2022-12-16T17:35:39.089Z,28.58
2022-12-16T17:40:59.273Z,33.50
2022-12-16T17:46:25.914Z,32.63
2022-12-16T17:51:46.497Z,28.08
2022-12-16T17:57:06.562Z,26.88
2022-12-16T18:02:31.676Z,30.98
2022-12-16T18:07:52.549Z,26.50
2022-12-16T18:13:14.933Z,26.33
2022-12-16T18:18:35.305Z,26.35
2022-12-16T18:23:56.958Z,22.70
2022-12-16T18:29:17.337Z,24.35
2022-12-16T18:34:37.660Z,24.70
2022-12-16T18:39:57.958Z,22.48
2022-12-16T18:45:18.171Z,23.00
2022-12-16T18:50:38.769Z,23.80
2022-12-16T18:55:58.935Z,25.33
2022-12-16T19:01:20.321Z,21.15
2022-12-16T19:06:54.583Z,21.52
2022-12-16T19:12:14.625Z,27.10
2022-12-16T19:17:34.818Z,28.40
2022-12-16T19:22:55.083Z,32.05
2022-12-16T19:28:16.287Z,29.30
2022-12-16T19:33:36.524Z,26.00
2022-12-16T19:38:56.781Z,26.35
2022-12-16T19:44:17.204Z,29.75
2022-12-16T19:49:44.393Z,29.67
2022-12-16T19:55:04.985Z,28.10
2022-12-16T20:00:25.807Z,35.08
2022-12-16T20:05:46.100Z,35.08
2022-12-16T20:11:06.300Z,36.17
2022-12-16T20:16:30.008Z,32.08
2022-12-16T20:21:52.506Z,31.27
2022-12-16T20:27:16.618Z,36.30
2022-12-16T20:32:40.172Z,41.88
2022-12-16T20:38:00.429Z,39.47
2022-12-16T20:43:20.790Z,43.00
2022-12-16T20:48:40.963Z,44.50
2022-12-16T20:54:01.264Z,43.53
2022-12-16T20:59:21.529Z,53.38
2022-12-16T21:04:41.864Z,44.03
2022-12-16T21:10:01.885Z,44.28
2022-12-16T21:15:22.342Z,39.28
2022-12-16T21:20:42.592Z,35.33
2022-12-16T21:26:02.963Z,34.35
2022-12-16T21:31:23.155Z,33.67
2022-12-16T21:36:43.681Z,32.60
2022-12-16T21:42:03.989Z,37.63
2022-12-16T21:47:24.275Z,32.28
2022-12-16T21:52:44.480Z,34.90
2022-12-16T21:58:04.819Z,37.75
2022-12-16T22:03:25.165Z,38.38
2022-12-16T22:08:45.733Z,30.88
2022-12-16T22:14:05.981Z,31.45
2022-12-16T22:19:26.817Z,28.73
2022-12-16T22:24:48.551Z,32.17
2022-12-16T22:30:25.689Z,35.97
2022-12-16T22:35:45.609Z,37.70
2022-12-16T22:41:16.522Z,28.85
2022-12-16T22:46:36.708Z,29.73
2022-12-16T22:51:56.940Z,31.83
2022-12-16T22:57:17.322Z,35.55
2022-12-16T23:02:37.706Z,31.65
2022-12-16T23:07:57.899Z,34.90
2022-12-16T23:13:18.307Z,34.45
2022-12-16T23:18:38.516Z,28.38
2022-12-16T23:23:58.930Z,33.13
2022-12-16T23:29:20.379Z,30.58
2022-12-16T23:34:45.459Z,27.60
2022-12-16T23:40:06.281Z,47.95
2022-12-16T23:45:27.007Z,40.38
2022-12-16T23:50:46.979Z,41.78
2022-12-16T23:56:17.028Z,40.78
